Airports Poland Gdansk Lech Walesa Airport

Gdansk Lech Walesa Airport (EPGD / GDN)

Facts about Gdansk Lech Walesa Airport

Name Gdansk Lech Walesa Airport
City Gdansk
Country Poland
ICAO code EPGD
IATA code GDN
Elevation 149.0472 meters (489 feet)

Weather

METAR

Metar data retrieved Friday, 19 July 2024 at 23:55 UTC (15 minutes ago)

EPGD 192330Z VRB01KT 7000 MIFG NSC 14/14 Q1018

Live traffic

Navigraph Charts (account required)